Latest Coastal Weather Observations for Port Fairy

IDV60701

Issued at 9:21 pm EST Tuesday 7 July 2015 (issued every 10 minutes, with the page automatically refreshed every 10 minutes)

About coastal observations | Map of coastal stations | Coastal observations for VIC | Marine services | Other Formats
Station Details ID: 090175 Name: PORT FAIRY AWS Lat: -38.39 Lon: 142.23 Height: 10.0 m
Data from the previous 72 hours. | See also: Recent months at Port Fairy
Date/Time
EST
Temp

°C
Wind Pressure Rain
since 9am
mm
Weather Cloud Vis
km
Sea
Height
m
Swell
Dir
 
Speed
knots
Gust
knots
hPa Trend Height
m
Period
s
Dir
07/09:00pm 9.8 NNW 4 6 1024.4 - 0.0 - - - - - - -
07/08:30pm 10.4 NE 2 3 1024.0 - 0.0 - - - - - - -
07/08:00pm 10.4 NNE 2 3 1023.8 - 0.0 - - - - - - -
07/07:30pm 11.6 E 4 7 1023.6 - 0.0 - - - - - - -
07/07:00pm 11.4 E 4 5 1023.5 - 0.0 - - - - - - -
07/06:30pm 11.4 E 3 5 1023.2 - 0.0 - - - - - - -
07/06:00pm 11.8 E 3 6 1023.0 - 0.0 - - - - - - -
07/05:30pm 11.8 ESE 3 4 1022.8 - 0.0 - - - - - - -
07/05:00pm 11.5 ESE 3 4 1022.6 - 0.0 - - - - - - -
07/04:30pm 11.9 ESE 3 4 1022.4 - 0.0 - - - - - - -
07/04:00pm 11.9 ESE 4 5 1022.2 - 0.0 - - - - - - -
07/03:30pm 13.2 ESE 5 7 1022.0 - 0.0 - - - - - - -
07/03:00pm 12.5 SE 4 5 1021.9 - 0.0 - - - - - - -
07/02:30pm 12.6 SE 3 4 1021.9 - 0.0 - - - - - - -
07/02:00pm 12.8 SSE 4 6 1021.9 - 0.0 - - - - - - -
07/01:30pm 13.2 SSE 4 5 1021.9 - 0.0 - - - - - - -
07/01:00pm 12.3 SSE 2 4 1022.0 - 0.0 - - - - - - -
07/12:30pm 13.3 N 2 4 1022.1 - 0.0 - - - - - - -
07/12:00pm 14.0 N 2 4 1022.3 - 0.0 - - - - - - -
07/11:30am 12.7 WNW 2 4 1022.6 - 0.0 - - - - - - -
07/11:00am 12.2 N 3 4 1022.8 - 0.0 - - - - - - -
07/10:30am 10.9 NNW 3 5 1022.7 - 0.0 - - - - - - -
07/10:00am 10.3 NW 2 3 1022.4 - 0.0 - - - - - - -
07/09:30am 9.8 NW 2 4 1022.1 - 0.0 - - - - - - -
07/09:00am 9.2 N 1 3 1021.8 - 1.6 - - - - - - -
07/08:30am 8.1 N 2 3 1021.3 - 1.6 - - - - - - -
07/08:00am 7.3 NE 3 3 1021.2 - 1.6 - - - - - - -
07/07:30am 6.8 N 3 4 1020.8 - 1.6 - - - - - - -
07/07:00am 6.8 N 2 3 1020.4 - 1.6 - - - - - - -
07/06:30am 6.9 NNW 4 5 1019.9 - 1.6 - - - - - - -
07/06:00am 7.0 NNW 5 7 1019.5 - 1.6 - - - - - - -
07/05:30am 7.0 NNW 4 6 1019.1 - 1.6 - - - - - - -
07/05:00am 6.9 N 5 7 1019.0 - 1.6 - - - - - - -
07/04:30am 6.2 N 4 6 1018.7 - 1.6 - - - - - - -
07/04:00am 5.8 NNW 5 7 1018.6 - 1.6 - - - - - - -
07/03:30am 5.4 N 4 7 1018.4 - 1.6 - - - - - - -
07/03:00am 5.7 NNW 4 6 1018.5 - 1.6 - - - - - - -
07/02:30am 5.9 NNW 4 6 1018.4 - 1.6 - - - - - - -
07/02:00am 6.0 NNW 5 7 1018.1 - 1.6 - - - - - - -
07/01:30am 6.3 N 5 7 1017.8 - 1.6 - - - - - - -
07/01:00am 6.2 N 4 6 1017.6 - 1.4 - - - - - - -
07/12:30am 6.6 N 4 5 1017.6 - 1.4 - - - - - - -
07/12:00am 6.9 N 5 6 1017.6 - 1.4 - - - - - - -
 
Date/Time
EST
Temp

°C
Wind Pressure Rain
since 9am
mm
Weather Cloud Vis
km
Sea
Height
m
Swell
Dir
 
Speed
knots
Gust
knots
hPa Trend Height
m
Period
s
Dir
06/11:30pm 7.6 NNW 4 5 1017.5 - 1.4 - - - - - - -
06/11:00pm 7.9 N 5 6 1017.3 - 1.4 - - - - - - -
06/10:30pm 8.1 N 5 6 1017.0 - 1.4 - - - - - - -
06/10:00pm 8.5 NNE 3 5 1016.9 - 1.4 - - - - - - -
06/09:30pm 9.0 N 3 5 1016.7 - 1.4 - - - - - - -
06/09:00pm 9.5 N 3 5 1016.5 - 1.4 - - - - - - -
06/08:30pm 9.7 N 3 4 1016.2 - 1.4 - - - - - - -
06/08:00pm 9.7 N 3 3 1015.8 - 1.4 - - - - - - -
06/07:30pm 10.2 NNE 3 5 1015.5 - 1.4 - - - - - - -
06/07:00pm 10.5 N 3 6 1015.4 - 1.4 - - - - - - -
06/06:30pm 11.0 N 3 5 1015.1 - 1.4 - - - - - - -
06/06:00pm 11.7 NNW 3 6 1014.8 - 1.0 Recent precip. - - - - - -
06/05:30pm 12.3 CALM 0 2 1014.2 - 0.6 - - - - - - -
06/05:00pm 12.5 CALM 0 2 1013.9 - 0.6 - - - - - - -
06/04:30pm 13.4 W 2 2 1013.5 - 0.6 - - - - - - -
06/04:00pm 13.5 WSW 4 5 1013.3 - 0.6 - - - - - - -
06/03:30pm 14.1 WNW 4 6 1013.1 - 0.6 - - - - - - -
06/03:00pm 13.9 NW 4 6 1012.9 - 0.6 - - - - - - -
06/02:30pm 13.3 NNW 5 9 1012.7 - 0.6 - - - - - - -
06/02:00pm 12.4 NNW 6 9 1012.8 - 0.6 - - - - - - -
06/01:30pm 11.6 N 6 9 1012.9 - 0.6 - - - - - - -
06/01:00pm 10.8 N 7 11 1013.3 - 0.6 - - - - - - -
06/12:30pm 10.9 NNW 11 15 1013.4 - 0.4 - - - - - - -
06/12:00pm 11.2 NNW 9 15 1013.6 - 0.4 Recent precip. - - - - - -
06/11:30am 11.4 NNW 7 11 1013.9 - 0.2 - - - - - - -
06/11:00am 11.2 NNW 8 13 1013.9 - 0.2 - - - - - - -
06/10:30am 10.5 N 7 11 1013.8 - 0.2 - - - - - - -
06/10:00am 9.8 N 7 12 1013.7 - 0.2 - - - - - - -
06/09:30am 9.5 N 6 9 1013.7 - 0.0 - - - - - - -
06/09:00am 9.0 N 6 9 1013.6 - 0.0 - - - - - - -
06/08:30am 8.8 NNE 5 9 1013.4 - 0.0 - - - - - - -
06/08:00am 8.8 NNE 5 7 1013.2 - 0.0 - - - - - - -
06/07:30am 8.6 NNE 6 8 1013.0 - 0.0 - - - - - - -
06/07:00am 8.2 NNE 5 8 1013.0 - 0.0 - - - - - - -
06/06:30am 8.6 NNE 5 8 1012.9 - 0.0 - - - - - - -
06/06:00am 8.8 N 6 8 1012.9 - 0.0 - - - - - - -
06/05:30am 9.4 N 6 9 1013.0 - 0.0 - - - - - - -
06/05:00am 9.8 N 7 12 1013.0 - 0.0 - - - - - - -
06/04:30am 10.2 N 7 10 1013.0 - 0.0 - - - - - - -
06/04:00am 10.1 N 7 10 1013.2 - 0.0 - - - - - - -
06/03:30am 10.2 N 6 9 1013.3 - 0.0 - - - - - - -
06/03:00am 10.2 N 7 11 1013.5 - 0.0 - - - - - - -
06/02:30am 10.2 N 6 9 1013.5 - 0.0 - - - - - - -
06/02:00am 10.4 N 5 9 1013.6 - 0.0 - - - - - - -
06/01:30am 10.7 N 6 10 1013.7 - 0.0 - - - - - - -
06/01:00am 10.9 N 7 11 1013.9 - 0.0 - - - - - - -
06/12:30am 10.9 N 7 9 1014.1 - 0.0 - - - - - - -
06/12:00am 10.8 N 6 9 1014.3 - 0.0 - - - - - - -
 
Date/Time
EST
Temp

°C
Wind Pressure Rain
since 9am
mm
Weather Cloud Vis
km
Sea
Height
m
Swell
Dir
 
Speed
knots
Gust
knots
hPa Trend Height
m
Period
s
Dir
05/11:30pm 10.6 N 6 9 1014.4 - 0.0 - - - - - - -
05/11:00pm 10.5 N 5 8 1014.5 - 0.0 - - - - - - -
05/10:30pm 10.6 N 4 6 1014.8 - 0.0 - - - - - - -
05/10:00pm 11.1 N 5 7 1015.0 - 0.0 - - - - - - -
05/09:30pm 11.4 N 6 9 1015.0 - 0.0 - - - - - - -
05/09:00pm 11.3 N 6 8 1015.1 - 0.0 - - - - - - -
05/08:30pm 11.4 N 6 8 1015.2 - 0.0 - - - - - - -
05/08:00pm 11.8 N 6 9 1015.2 - 0.0 - - - - - - -
05/07:30pm 11.7 N 5 7 1015.2 - 0.0 - - - - - - -
05/07:00pm 11.9 N 5 7 1015.3 - 0.0 - - - - - - -
05/06:30pm 12.1 N 3 5 1015.2 - 0.0 - - - - - - -
05/06:00pm 12.5 N 4 6 1015.2 - 0.0 - - - - - - -
05/05:30pm 12.9 N 6 10 1015.1 - 0.0 - - - - - - -
05/05:00pm 13.4 NNW 7 11 1015.0 - 0.0 - - - - - - -
05/04:30pm 13.7 N 7 10 1015.0 - 0.0 - - - - - - -
05/04:00pm 14.0 NNW 7 13 1015.0 - 0.0 - - - - - - -
05/03:30pm 14.2 NNW 9 15 1015.0 - 0.0 - - - - - - -
05/03:00pm 14.2 NNW 9 14 1015.1 - 0.0 - - - - - - -
05/02:30pm 14.2 NNW 10 16 1015.2 - 0.0 - - - - - - -
05/02:00pm 14.2 NNW 10 17 1015.4 - 0.0 - - - - - - -
05/01:30pm 14.3 NNW 11 18 1015.8 - 0.0 - - - - - - -
05/01:00pm 13.9 NNW 12 20 1016.0 - 0.0 - - - - - - -
05/12:30pm 13.4 NNW 11 17 1016.4 - 0.0 - - - - - - -
05/12:00pm 13.1 NNW 10 17 1016.7 - 0.0 - - - - - - -
05/11:30am 13.1 NNW 11 20 1017.1 - 0.0 - - - - - - -
05/11:00am 12.5 NNW 12 17 1017.6 - 0.0 - - - - - - -
05/10:30am 12.0 N 11 17 1017.7 - 0.0 - - - - - - -
05/10:00am 10.7 NNW 9 15 1017.9 - 0.0 - - - - - - -
05/09:30am 10.2 NNW 9 15 1018.2 - 0.0 - - - - - - -
05/09:00am 9.5 NNW 8 14 1018.2 - 0.0 - - - - - - -
05/08:30am 9.2 NNW 8 13 1018.2 - 0.0 - - - - - - -
05/08:00am 8.6 N 7 10 1018.1 - 0.0 - - - - - - -
05/07:30am 8.2 N 7 10 1018.2 - 0.0 - - - - - - -
05/07:00am 7.8 N 6 9 1018.1 - 0.0 - - - - - - -
05/06:30am 7.8 NNW 6 9 1018.0 - 0.0 - - - - - - -
05/06:00am 8.0 NNW 7 10 1018.1 - 0.0 - - - - - - -
05/05:30am 8.2 N 6 10 1018.0 - 0.0 - - - - - - -
05/05:00am 8.4 N 6 8 1017.8 - 0.0 - - - - - - -
05/04:30am 8.8 N 6 9 1017.8 - 0.0 - - - - - - -
05/04:00am 9.2 NNW 7 10 1018.1 - 0.0 - - - - - - -
05/03:30am 9.4 NNW 7 10 1018.3 - 0.0 - - - - - - -
05/03:00am 9.7 NNW 8 11 1018.5 - 0.0 - - - - - - -
05/02:30am 9.9 NNW 10 13 1018.4 - 0.0 - - - - - - -
05/02:00am 10.0 NNW 8 15 1018.6 - 0.0 - - - - - - -
05/01:30am 10.2 NNW 9 15 1018.6 - 0.0 - - - - - - -
05/01:00am 10.3 NNW 8 14 1018.8 - 0.0 - - - - - - -
05/12:30am 10.3 NNW 7 12 1018.9 - 0.0 - - - - - - -
05/12:00am 10.1 NNW 8 13 1019.2 - 0.0 - - - - - - -
 
Date/Time
EST
Temp

°C
Wind Pressure Rain
since 9am
mm
Weather Cloud Vis
km
Sea
Height
m
Swell
Dir
 
Speed
knots
Gust
knots
hPa Trend Height
m
Period
s
Dir
04/11:30pm 10.3 NNW 8 12 1019.5 - 0.0 - - - - - - -
04/11:00pm 10.1 NNW 10 14 1019.7 - 0.0 - - - - - - -
04/10:30pm 9.8 NNW 7 11 1020.0 - 0.0 - - - - - - -
04/10:00pm 9.9 NNW 7 14 1020.1 - 0.0 - - - - - - -
04/09:30pm 10.0 NNW 7 12 1020.2 - 0.0 - - - - - - -

Other Formats:

Comma delimited format used in spreadsheet applications
http://www.bom.gov.au/fwo/IDV60701/IDV60701.94830.axf

JavaScript Object Notation format (JSON) in row-major order
http://www.bom.gov.au/fwo/IDV60701/IDV60701.94830.json